createdAt,value
2023-02-19T00:01:54.876Z,93.27
2023-02-19T00:04:23.940Z,92.76
2023-02-19T00:06:52.195Z,92.39
2023-02-19T00:09:21.740Z,91.68
2023-02-19T00:11:50.494Z,91.44
2023-02-19T00:14:21.632Z,91.25
2023-02-19T00:16:50.373Z,91.37
2023-02-19T00:19:20.990Z,90.98
2023-02-19T00:21:52.738Z,91.19
2023-02-19T00:24:22.143Z,91.59
2023-02-19T00:26:50.614Z,91.74
2023-02-19T00:29:21.601Z,91.85
2023-02-19T00:31:51.211Z,91.80
2023-02-19T00:34:19.886Z,91.88
2023-02-19T00:36:48.424Z,91.33
2023-02-19T00:39:18.731Z,91.52
2023-02-19T00:41:47.848Z,91.38
2023-02-19T00:44:16.244Z,91.30
2023-02-19T00:46:47.052Z,91.14
2023-02-19T00:49:23.390Z,90.83
2023-02-19T00:51:53.246Z,90.95
2023-02-19T00:54:22.959Z,91.24
2023-02-19T00:56:51.796Z,91.46
2023-02-19T00:59:20.745Z,91.68
2023-02-19T01:01:49.967Z,91.87
2023-02-19T01:04:19.266Z,92.21
2023-02-19T01:06:49.125Z,92.31
2023-02-19T01:09:17.524Z,92.91
2023-02-19T01:11:46.055Z,93.27
2023-02-19T01:14:14.182Z,93.22
2023-02-19T01:16:42.503Z,93.50
2023-02-19T01:19:10.648Z,93.95
2023-02-19T01:21:40.961Z,93.91
2023-02-19T01:24:11.436Z,94.25
2023-02-19T01:26:40.731Z,94.42
2023-02-19T01:29:09.802Z,94.48
2023-02-19T01:31:40.076Z,94.70
2023-02-19T01:34:12.337Z,94.36
2023-02-19T01:36:41.293Z,94.18
2023-02-19T01:39:10.877Z,94.19
2023-02-19T01:41:41.134Z,94.20
2023-02-19T01:44:12.884Z,93.82
2023-02-19T01:46:51.600Z,93.86
2023-02-19T01:49:28.411Z,93.65
2023-02-19T01:52:02.300Z,92.96
2023-02-19T01:54:37.240Z,92.30
2023-02-19T01:57:08.548Z,92.17
2023-02-19T01:59:37.274Z,91.98
2023-02-19T02:02:06.686Z,91.81
2023-02-19T02:04:36.191Z,91.77
2023-02-19T02:07:29.687Z,91.95
2023-02-19T02:10:16.817Z,91.86
2023-02-19T02:12:45.159Z,91.87
2023-02-19T02:15:15.187Z,91.70
2023-02-19T02:17:57.590Z,91.79
2023-02-19T02:20:44.685Z,91.87
2023-02-19T02:23:28.682Z,91.86
2023-02-19T02:25:56.966Z,91.98
2023-02-19T02:28:34.629Z,91.77
2023-02-19T02:31:17.455Z,92.07
2023-02-19T02:34:06.309Z,92.44
2023-02-19T02:36:41.800Z,92.08
2023-02-19T02:39:14.384Z,91.75
2023-02-19T02:42:13.461Z,91.58
2023-02-19T02:45:03.471Z,91.52
2023-02-19T02:47:41.258Z,91.72
2023-02-19T02:50:15.888Z,92.07
2023-02-19T02:53:08.092Z,92.07
2023-02-19T02:55:43.641Z,92.16
2023-02-19T02:58:14.821Z,92.36
2023-02-19T03:01:04.879Z,92.38
2023-02-19T03:03:37.369Z,92.66
2023-02-19T03:06:09.445Z,92.75
2023-02-19T03:08:44.096Z,92.58
2023-02-19T03:11:31.681Z,92.61
2023-02-19T03:14:27.505Z,92.71
2023-02-19T03:17:20.668Z,92.49
2023-02-19T03:19:54.499Z,92.32
2023-02-19T03:22:31.607Z,92.39
2023-02-19T03:25:26.356Z,92.66
2023-02-19T03:27:58.688Z,92.53
2023-02-19T03:30:35.619Z,92.79
2023-02-19T03:33:10.309Z,92.67
2023-02-19T03:35:45.068Z,92.69
2023-02-19T03:38:27.136Z,92.57
2023-02-19T03:41:20.929Z,92.92
2023-02-19T03:44:07.962Z,92.74
2023-02-19T03:46:48.740Z,92.72
2023-02-19T03:49:30.016Z,92.78
2023-02-19T03:52:09.150Z,92.74
2023-02-19T03:55:06.753Z,92.73
2023-02-19T03:57:51.691Z,93.05
2023-02-19T04:00:38.916Z,93.11
2023-02-19T04:03:18.664Z,93.01
2023-02-19T04:05:52.205Z,93.12
2023-02-19T04:08:23.617Z,93.13
2023-02-19T04:10:58.464Z,92.71
2023-02-19T04:13:33.119Z,92.64
2023-02-19T04:16:08.309Z,92.62
2023-02-19T04:18:43.988Z,92.41
2023-02-19T04:21:13.589Z,92.03
2023-02-19T04:23:44.747Z,91.89
2023-02-19T04:26:15.591Z,92.04
2023-02-19T04:28:44.550Z,92.18
2023-02-19T04:31:13.154Z,91.88
2023-02-19T04:33:41.611Z,92.05
2023-02-19T04:36:11.848Z,92.34
2023-02-19T04:38:40.219Z,92.86
2023-02-19T04:41:09.944Z,92.74
2023-02-19T04:43:38.433Z,92.86
2023-02-19T04:46:07.165Z,93.15
2023-02-19T04:48:35.483Z,93.03
2023-02-19T04:51:07.945Z,92.95
2023-02-19T04:53:37.362Z,93.04
2023-02-19T04:56:11.797Z,93.12
2023-02-19T04:58:41.420Z,92.86
2023-02-19T05:01:11.139Z,92.98
2023-02-19T05:03:39.771Z,92.77
2023-02-19T05:06:12.779Z,92.81
2023-02-19T05:08:41.887Z,92.38
2023-02-19T05:11:12.678Z,93.11
2023-02-19T05:13:41.453Z,93.38
2023-02-19T05:16:16.378Z,93.05
2023-02-19T05:18:46.790Z,93.31
2023-02-19T05:21:16.182Z,92.42
2023-02-19T05:23:44.554Z,92.79
2023-02-19T05:26:19.813Z,92.07
2023-02-19T05:28:51.235Z,92.22
2023-02-19T05:31:21.285Z,92.33
2023-02-19T05:33:53.050Z,92.50
2023-02-19T05:36:22.531Z,91.98
2023-02-19T05:38:55.622Z,91.29
2023-02-19T05:41:27.445Z,90.89
2023-02-19T05:43:56.996Z,90.84
2023-02-19T05:46:28.051Z,91.64
2023-02-19T05:48:58.315Z,91.26
2023-02-19T05:51:28.005Z,91.55
2023-02-19T05:53:57.690Z,91.50
2023-02-19T05:56:40.018Z,91.33
2023-02-19T05:59:13.286Z,91.20
2023-02-19T06:01:41.870Z,91.40
2023-02-19T06:04:11.881Z,91.04
2023-02-19T06:06:41.228Z,91.19
2023-02-19T06:09:10.713Z,92.01
2023-02-19T06:11:40.102Z,93.56
2023-02-19T06:14:08.352Z,93.44
2023-02-19T06:16:36.457Z,93.37
2023-02-19T06:19:04.996Z,93.69
2023-02-19T06:21:33.157Z,92.96
2023-02-19T06:24:09.163Z,92.35
2023-02-19T06:26:38.656Z,92.95
2023-02-19T06:29:07.215Z,93.08
2023-02-19T06:31:35.376Z,93.30
2023-02-19T06:34:05.190Z,93.68
2023-02-19T06:36:33.653Z,92.84
2023-02-19T06:39:04.265Z,91.33
2023-02-19T06:41:32.758Z,90.46
2023-02-19T06:44:01.755Z,90.56
2023-02-19T06:46:30.489Z,90.68
2023-02-19T06:48:59.168Z,90.51
2023-02-19T06:51:29.903Z,90.26
2023-02-19T06:53:58.968Z,89.08
2023-02-19T06:56:30.488Z,88.49
2023-02-19T06:59:01.344Z,88.00
2023-02-19T07:01:31.684Z,87.77
2023-02-19T07:04:00.409Z,88.03
2023-02-19T07:06:29.302Z,88.16
2023-02-19T07:08:58.974Z,87.61
2023-02-19T07:11:30.423Z,87.55
2023-02-19T07:14:00.966Z,86.79
2023-02-19T07:16:30.170Z,87.00
2023-02-19T07:19:00.180Z,86.07
2023-02-19T07:21:29.515Z,86.32
2023-02-19T07:23:58.785Z,85.67
2023-02-19T07:26:27.089Z,85.57
2023-02-19T07:28:55.227Z,85.92
2023-02-19T07:31:24.956Z,86.13
2023-02-19T07:33:53.188Z,85.60
2023-02-19T07:36:24.268Z,85.72
2023-02-19T07:39:00.106Z,85.92
2023-02-19T07:41:28.449Z,85.37
2023-02-19T07:43:59.175Z,83.30
2023-02-19T07:46:28.027Z,83.21
2023-02-19T07:48:56.160Z,83.62
2023-02-19T07:51:24.483Z,82.73
2023-02-19T07:53:52.864Z,81.83
2023-02-19T07:56:21.359Z,81.87
2023-02-19T07:58:50.160Z,81.92
2023-02-19T08:01:40.876Z,81.63
2023-02-19T08:04:11.681Z,80.47
2023-02-19T08:06:40.780Z,80.50
2023-02-19T08:09:09.795Z,79.72
2023-02-19T08:11:56.688Z,79.17
2023-02-19T08:14:29.290Z,78.64
2023-02-19T08:16:57.657Z,77.88
2023-02-19T08:19:25.829Z,76.52
2023-02-19T08:21:54.525Z,73.23
2023-02-19T08:24:22.788Z,72.35
2023-02-19T08:26:51.009Z,71.92
2023-02-19T08:29:19.444Z,71.58
2023-02-19T08:31:48.152Z,70.80
2023-02-19T08:34:16.433Z,69.53
2023-02-19T08:36:44.798Z,70.18
2023-02-19T08:39:13.316Z,70.27
2023-02-19T08:41:41.755Z,69.46
2023-02-19T08:44:10.116Z,68.84
2023-02-19T08:46:38.436Z,68.12
2023-02-19T08:49:06.590Z,67.80
2023-02-19T08:51:34.772Z,68.19
2023-02-19T08:54:04.696Z,67.31
2023-02-19T08:56:32.855Z,67.62
2023-02-19T08:59:01.239Z,68.17
2023-02-19T09:01:29.373Z,69.57
2023-02-19T09:03:57.697Z,69.89
2023-02-19T09:06:26.197Z,68.68
2023-02-19T09:08:54.561Z,68.67
2023-02-19T09:11:22.697Z,68.78
2023-02-19T09:13:50.808Z,67.57
2023-02-19T09:16:19.282Z,67.23
2023-02-19T09:18:47.312Z,67.40
2023-02-19T09:21:15.944Z,68.54
2023-02-19T09:23:44.001Z,68.11
2023-02-19T09:26:14.262Z,68.44
2023-02-19T09:28:42.424Z,67.28
2023-02-19T09:31:13.506Z,68.39
2023-02-19T09:33:46.818Z,68.07
2023-02-19T09:36:16.737Z,68.75
2023-02-19T09:38:45.884Z,68.48
2023-02-19T09:41:32.411Z,68.36
2023-02-19T09:44:04.238Z,69.03
2023-02-19T09:46:38.882Z,69.86
2023-02-19T09:49:17.173Z,68.97
2023-02-19T09:52:00.720Z,69.48
2023-02-19T09:54:31.733Z,71.25
2023-02-19T09:57:04.361Z,72.10
2023-02-19T09:59:42.186Z,70.67
2023-02-19T10:02:17.552Z,70.85
2023-02-19T10:04:47.189Z,69.90
2023-02-19T10:07:19.375Z,69.64
2023-02-19T10:10:17.949Z,70.62
2023-02-19T10:12:50.690Z,71.21
2023-02-19T10:15:46.805Z,71.30
2023-02-19T10:18:22.407Z,70.15
2023-02-19T10:20:52.605Z,71.78
2023-02-19T10:23:21.437Z,72.62
2023-02-19T10:25:59.167Z,73.20
2023-02-19T10:28:30.543Z,74.86
2023-02-19T10:31:01.578Z,75.04
2023-02-19T10:33:30.113Z,75.18
2023-02-19T10:36:07.963Z,75.36
2023-02-19T10:38:40.513Z,75.21
2023-02-19T10:41:12.824Z,74.10
2023-02-19T10:43:45.985Z,74.00
2023-02-19T10:46:22.987Z,75.26
2023-02-19T10:48:55.415Z,76.40
2023-02-19T10:51:36.487Z,76.67
2023-02-19T10:54:15.677Z,76.51
2023-02-19T10:56:43.831Z,76.22
2023-02-19T10:59:19.258Z,76.27
2023-02-19T11:02:00.604Z,76.62
2023-02-19T11:04:36.512Z,77.03
2023-02-19T11:07:15.172Z,76.61
2023-02-19T11:09:46.261Z,76.61
2023-02-19T11:12:23.662Z,77.41
2023-02-19T11:14:51.941Z,76.89
2023-02-19T11:17:30.765Z,77.03
2023-02-19T11:20:04.836Z,76.29
2023-02-19T11:22:39.716Z,76.66
2023-02-19T11:25:25.720Z,75.84
2023-02-19T11:28:08.267Z,78.23
2023-02-19T11:30:42.571Z,78.58
2023-02-19T11:33:17.081Z,78.00
2023-02-19T11:35:46.564Z,78.10
2023-02-19T11:38:17.423Z,78.23
2023-02-19T11:40:57.782Z,79.02
2023-02-19T11:43:54.569Z,78.49
2023-02-19T11:46:35.291Z,78.29
2023-02-19T11:49:45.027Z,78.97
2023-02-19T11:52:37.702Z,77.02
2023-02-19T11:55:21.723Z,77.03
2023-02-19T11:58:05.056Z,77.81
2023-02-19T12:00:45.039Z,78.16
2023-02-19T12:03:28.544Z,78.03
2023-02-19T12:06:24.105Z,77.90
2023-02-19T12:09:16.613Z,78.22
2023-02-19T12:12:13.965Z,78.33
2023-02-19T12:15:17.796Z,77.64
2023-02-19T12:18:05.850Z,78.74
2023-02-19T12:20:44.333Z,80.89
2023-02-19T12:23:35.862Z,83.25
2023-02-19T12:26:17.040Z,86.47
2023-02-19T12:28:57.713Z,88.04
2023-02-19T12:31:51.413Z,88.75
2023-02-19T12:34:44.034Z,89.87
2023-02-19T12:37:28.362Z,91.03
2023-02-19T12:40:12.020Z,92.16
2023-02-19T12:42:52.797Z,92.97
2023-02-19T12:45:45.510Z,92.48
2023-02-19T12:48:35.843Z,92.74
2023-02-19T12:51:21.374Z,93.56
2023-02-19T12:53:49.611Z,93.02
2023-02-19T12:56:23.639Z,93.38
2023-02-19T12:59:24.240Z,92.75
2023-02-19T13:02:03.295Z,94.05
2023-02-19T13:04:43.491Z,94.94
2023-02-19T13:07:19.023Z,96.31
2023-02-19T13:10:04.680Z,97.48
2023-02-19T13:12:38.965Z,97.88
2023-02-19T13:15:18.977Z,97.25
2023-02-19T13:17:51.575Z,95.82
2023-02-19T13:20:37.270Z,95.42
2023-02-19T13:24:03.256Z,95.98
2023-02-19T13:27:05.734Z,96.01
2023-02-19T13:29:50.707Z,96.50
2023-02-19T13:33:07.619Z,96.36
2023-02-19T13:35:57.404Z,95.67
2023-02-19T13:38:26.191Z,94.74
2023-02-19T13:40:57.817Z,94.54
2023-02-19T13:43:40.403Z,92.89
2023-02-19T13:46:12.396Z,91.31
2023-02-19T13:48:42.652Z,90.54
2023-02-19T13:51:17.483Z,90.82
2023-02-19T13:53:45.737Z,91.20
2023-02-19T13:56:35.556Z,90.88
2023-02-19T13:59:37.214Z,89.52
2023-02-19T14:02:26.830Z,87.38
2023-02-19T14:05:13.365Z,86.55
2023-02-19T14:07:50.551Z,86.50
2023-02-19T14:10:41.083Z,85.33
2023-02-19T14:13:09.615Z,85.35
2023-02-19T14:15:49.889Z,85.14
2023-02-19T14:18:43.285Z,84.71
2023-02-19T14:21:26.142Z,85.98
2023-02-19T14:23:58.040Z,86.13
2023-02-19T14:26:27.399Z,85.90
2023-02-19T14:28:56.273Z,85.96
2023-02-19T14:31:34.291Z,86.70
2023-02-19T14:34:07.055Z,87.64
2023-02-19T14:36:50.352Z,87.73
2023-02-19T14:39:35.339Z,87.71
2023-02-19T14:42:14.380Z,87.53
2023-02-19T14:44:51.553Z,87.13
2023-02-19T14:47:26.168Z,87.57
2023-02-19T14:49:58.387Z,86.67
2023-02-19T14:52:36.991Z,87.25
2023-02-19T14:55:30.560Z,86.87
2023-02-19T14:58:01.360Z,86.35
2023-02-19T15:00:34.298Z,85.41
2023-02-19T15:03:03.983Z,85.14
2023-02-19T15:05:36.783Z,85.64
2023-02-19T15:08:12.453Z,86.28
2023-02-19T15:10:43.378Z,86.36
2023-02-19T15:13:17.509Z,85.93
2023-02-19T15:15:46.896Z,85.09
2023-02-19T15:18:21.938Z,84.14
2023-02-19T15:20:51.875Z,85.22
2023-02-19T15:23:25.532Z,87.09
2023-02-19T15:25:54.034Z,91.80
2023-02-19T15:28:34.118Z,96.48
2023-02-19T15:31:03.517Z,100.00
2023-02-19T15:33:32.495Z,100.00
2023-02-19T15:36:06.961Z,100.00
2023-02-19T15:38:35.916Z,100.00
2023-02-19T15:41:05.213Z,100.00
2023-02-19T15:43:53.968Z,100.00
2023-02-19T15:46:25.288Z,100.00
2023-02-19T15:49:13.871Z,100.00
2023-02-19T15:51:51.162Z,100.00
2023-02-19T15:54:38.126Z,100.00
2023-02-19T15:57:14.477Z,100.00
2023-02-19T15:59:51.017Z,100.00
2023-02-19T16:02:19.973Z,100.00
2023-02-19T16:04:48.399Z,100.00
2023-02-19T16:07:28.272Z,100.00
2023-02-19T16:10:26.138Z,100.00
2023-02-19T16:12:58.841Z,100.00
2023-02-19T16:15:29.348Z,100.00
2023-02-19T16:17:58.936Z,100.00
2023-02-19T16:20:33.480Z,99.69
2023-02-19T16:23:13.214Z,98.13
2023-02-19T16:25:44.670Z,97.91
2023-02-19T16:28:26.682Z,97.92
2023-02-19T16:31:00.164Z,97.75
2023-02-19T16:33:36.298Z,98.09
2023-02-19T16:36:20.605Z,98.46
2023-02-19T16:39:07.286Z,100.00
2023-02-19T16:41:48.174Z,100.00
2023-02-19T16:44:25.484Z,100.00
2023-02-19T16:46:57.415Z,100.00
2023-02-19T16:49:25.737Z,100.00
2023-02-19T16:51:54.840Z,99.99
2023-02-19T16:54:23.072Z,99.05
2023-02-19T16:56:51.203Z,99.16
2023-02-19T16:59:19.320Z,99.01
2023-02-19T17:01:48.006Z,98.81
2023-02-19T17:04:16.605Z,98.42
2023-02-19T17:06:45.798Z,97.52
2023-02-19T17:09:13.967Z,97.02
2023-02-19T17:11:42.247Z,96.08
2023-02-19T17:14:10.630Z,96.11
2023-02-19T17:16:41.982Z,95.79
2023-02-19T17:19:17.113Z,96.44
2023-02-19T17:21:46.947Z,96.38
2023-02-19T17:24:15.300Z,96.81
2023-02-19T17:26:43.448Z,96.31
2023-02-19T17:29:15.381Z,96.37
2023-02-19T17:31:43.970Z,95.58
2023-02-19T17:34:12.436Z,96.11
2023-02-19T17:36:43.458Z,96.07
2023-02-19T17:39:16.140Z,96.01
2023-02-19T17:41:44.540Z,95.64
2023-02-19T17:44:12.803Z,96.22
2023-02-19T17:46:42.034Z,94.80
2023-02-19T17:49:13.447Z,95.15
2023-02-19T17:51:41.635Z,95.45
2023-02-19T17:54:09.680Z,95.45
2023-02-19T17:56:43.323Z,95.25
2023-02-19T17:59:12.573Z,94.05
2023-02-19T18:01:40.659Z,94.57
2023-02-19T18:04:09.024Z,96.08
2023-02-19T18:06:37.746Z,97.20
2023-02-19T18:09:06.075Z,98.10
2023-02-19T18:11:35.948Z,98.84
2023-02-19T18:14:05.756Z,98.76
2023-02-19T18:16:33.824Z,99.38
2023-02-19T18:19:04.472Z,99.91
2023-02-19T18:21:32.741Z,100.00
2023-02-19T18:24:00.766Z,100.00
2023-02-19T18:26:29.007Z,100.00
2023-02-19T18:28:57.164Z,100.00
2023-02-19T18:31:25.432Z,100.00
2023-02-19T18:33:53.821Z,100.00
2023-02-19T18:36:24.561Z,100.00
2023-02-19T18:38:52.834Z,100.00
2023-02-19T18:41:21.478Z,100.00
2023-02-19T18:43:50.577Z,99.95
2023-02-19T18:46:22.378Z,99.04
2023-02-19T18:48:50.475Z,98.66
2023-02-19T18:51:21.167Z,98.65
2023-02-19T18:53:50.026Z,98.56
2023-02-19T18:56:18.439Z,98.44
2023-02-19T18:58:48.237Z,98.65
2023-02-19T19:01:18.531Z,98.93
2023-02-19T19:03:46.656Z,99.15
2023-02-19T19:06:15.082Z,99.54
2023-02-19T19:08:43.749Z,100.00
2023-02-19T19:11:12.147Z,100.00
2023-02-19T19:13:40.612Z,100.00
2023-02-19T19:16:08.917Z,100.00
2023-02-19T19:18:38.396Z,100.00
2023-02-19T19:21:06.878Z,100.00
2023-02-19T19:23:36.387Z,100.00
2023-02-19T19:26:06.255Z,100.00
2023-02-19T19:28:34.487Z,99.09
2023-02-19T19:31:03.227Z,97.15
2023-02-19T19:33:31.513Z,97.42
2023-02-19T19:35:59.927Z,98.08
2023-02-19T19:38:28.456Z,99.06
2023-02-19T19:40:56.630Z,99.56
2023-02-19T19:43:32.646Z,100.00
2023-02-19T19:46:03.488Z,100.00
2023-02-19T19:48:33.320Z,100.00
2023-02-19T19:51:01.586Z,100.00
2023-02-19T19:53:29.859Z,100.00
2023-02-19T19:55:58.165Z,100.00
2023-02-19T19:58:26.331Z,100.00
2023-02-19T20:00:55.279Z,100.00
2023-02-19T20:03:25.117Z,100.00
2023-02-19T20:05:53.803Z,100.00
2023-02-19T20:08:22.492Z,100.00
2023-02-19T20:10:50.668Z,100.00
2023-02-19T20:13:24.377Z,100.00
2023-02-19T20:15:52.798Z,100.00
2023-02-19T20:18:21.757Z,100.00
2023-02-19T20:20:49.910Z,99.72
2023-02-19T20:23:18.428Z,99.82
2023-02-19T20:25:48.935Z,96.46
2023-02-19T20:28:17.180Z,94.26
2023-02-19T20:30:45.374Z,95.48
2023-02-19T20:33:13.457Z,95.06
2023-02-19T20:35:41.720Z,94.55
2023-02-19T20:38:09.835Z,95.10
2023-02-19T20:40:38.302Z,95.42
2023-02-19T20:43:06.677Z,94.86
2023-02-19T20:45:34.955Z,95.84
2023-02-19T20:48:03.130Z,96.78
2023-02-19T20:50:31.618Z,95.89
2023-02-19T20:52:59.995Z,97.32
2023-02-19T20:55:28.989Z,96.78
2023-02-19T20:57:57.167Z,96.85
2023-02-19T21:00:25.658Z,97.15
2023-02-19T21:02:53.945Z,97.62
2023-02-19T21:05:22.826Z,98.33
2023-02-19T21:07:51.198Z,97.85
2023-02-19T21:10:19.582Z,98.94
2023-02-19T21:12:48.271Z,98.36
2023-02-19T21:15:16.935Z,98.43
2023-02-19T21:17:46.742Z,98.59
2023-02-19T21:20:18.104Z,98.75
2023-02-19T21:22:46.515Z,99.38
2023-02-19T21:25:14.880Z,99.08
2023-02-19T21:27:43.137Z,98.78
2023-02-19T21:30:11.988Z,99.26
2023-02-19T21:32:40.050Z,98.37
2023-02-19T21:35:08.812Z,98.23
2023-02-19T21:37:36.995Z,99.00
2023-02-19T21:40:06.670Z,98.50
2023-02-19T21:42:34.909Z,98.31
2023-02-19T21:45:03.979Z,97.94
2023-02-19T21:47:32.032Z,98.31
2023-02-19T21:50:00.357Z,98.27
2023-02-19T21:52:29.118Z,97.69
2023-02-19T21:54:58.311Z,97.56
2023-02-19T21:57:26.806Z,98.96
2023-02-19T21:59:55.075Z,99.91
2023-02-19T22:02:24.581Z,100.00
2023-02-19T22:04:54.318Z,99.88
2023-02-19T22:07:22.876Z,100.00
2023-02-19T22:09:52.182Z,100.00
2023-02-19T22:12:20.777Z,100.00
2023-02-19T22:14:48.816Z,100.00
2023-02-19T22:17:17.235Z,100.00
2023-02-19T22:19:45.392Z,100.00
2023-02-19T22:22:14.433Z,100.00
2023-02-19T22:24:42.426Z,100.00
2023-02-19T22:27:10.635Z,100.00
2023-02-19T22:29:39.134Z,99.98
2023-02-19T22:32:07.582Z,100.00
2023-02-19T22:34:42.760Z,100.00
2023-02-19T22:37:11.080Z,99.96
2023-02-19T22:39:39.122Z,100.00
2023-02-19T22:42:07.452Z,100.00
2023-02-19T22:44:35.667Z,100.00
2023-02-19T22:47:03.828Z,100.00
2023-02-19T22:49:32.145Z,100.00
2023-02-19T22:52:07.538Z,100.00
2023-02-19T22:54:36.551Z,100.00
2023-02-19T22:57:05.715Z,100.00
2023-02-19T22:59:33.962Z,100.00
2023-02-19T23:02:02.301Z,99.88
2023-02-19T23:04:30.469Z,99.13
2023-02-19T23:06:58.550Z,99.36
2023-02-19T23:09:29.425Z,99.27
2023-02-19T23:12:06.073Z,99.65
2023-02-19T23:14:35.598Z,99.96
2023-02-19T23:17:03.872Z,100.00
2023-02-19T23:19:32.848Z,100.00
2023-02-19T23:22:01.242Z,100.00
2023-02-19T23:24:29.403Z,99.68
2023-02-19T23:26:59.940Z,99.07
2023-02-19T23:29:30.616Z,96.95
2023-02-19T23:32:00.418Z,94.71
2023-02-19T23:34:29.030Z,93.78
2023-02-19T23:36:59.706Z,92.60
2023-02-19T23:39:28.603Z,92.72
2023-02-19T23:41:57.773Z,92.37
2023-02-19T23:44:26.295Z,92.18
2023-02-19T23:46:54.351Z,91.90
2023-02-19T23:49:23.142Z,91.78
2023-02-19T23:51:51.937Z,92.60
2023-02-19T23:54:20.377Z,92.56
2023-02-19T23:56:48.495Z,92.83
2023-02-19T23:59:16.964Z,93.06
